Andale, Kansas
Current Conditions -  °F | °C
As of 9:53 AM on Wednesday 26 Nov 2014 (Local Time) from KICT Reporting Station
Few Clouds Few Clouds  
Wind Chill: 38°   Ceiling: Unl
Heat Index: 47°   Visibility: 10mi
Dew Point: 25°   Wind: 30mph
Humidity: 42%   Direction: 330°NNW
Pressure: 30.12"   Gusts: 39mph
Location:  37.79°N, 97.63°W
Report Text: KICT 261553Z 33026G34KT 10SM FEW045 FEW130 FEW200 08/M04 A3012 RMK AO2 PK WND 33035/1538 SLP202 T00831039
Loading
Personal Weather Stations






























Interactive Weather Map New forecast layout! Learn more

10-Day Weather Forecast

Advertisements
Track Severe Weather on mobile